Robertsdale, AL (36567)

1:53 AM CDT on July 03, 2015 (GMT -0500)
KALROBER4 | | Change Station
CLOSE
Current Station
Personal Weather Station
Location: Robertsdale, AL
Elevation: 156 ft
Nearby Weather Stations

Elev 156 ft 30.55 °N, 87.70 °W | Updated 13 seconds ago

Clear
Clear
78.6 °F
Feels Like 82 °F
N
1.3
Wind Variable Wind from West
Gusts 2.0 mph

Today
High -- | Low -- °F
--% Chance of Precip.
Yesterday
High -- | Low -- °F
Precip. -- in
5:52 AM 7:56 PM
Full, 98% visible
Pressure 30.06 in
Visibility 10.0 miles
Clouds Scattered Clouds 2100 ft
Scattered Clouds 2600 ft
Heat Index 82 °F
Dew Point 76 °F
Humidity 92%
Rainfall 0.00 in
Snow Depth Not available.
UV 0 out of 12
Pollen .50 out of 12
Air Quality Not available.
Flu Activity Not available.
METAR KJKA 030635Z AUTO 21006KT 10SM SCT021 SCT026 27/25 A3006 RMK AO2 T02670245

More Conditions Fewer Conditions

Pressure 30.06 in
Visibility 10.0 miles
Clouds Scattered Clouds 2100 ft
Scattered Clouds 2600 ft
Heat Index 82 °F
Dew Point 76 °F
Humidity 92%
Rainfall 0.00 in
Snow Depth Not available.
UV 0 out of 12
Pollen .50 out of 12
Air Quality Not available.
Flu Activity Not available.
METAR KJKA 030635Z AUTO 21006KT 10SM SCT021 SCT026 27/25 A3006 RMK AO2 T02670245

More Conditions Fewer Conditions

10-Day Weather Forecast

×

Almanac

Astronomy

Jul. 03, 2015 Rise Set
Actual Time
Civil Twilight
Nautical Twilight
Astronomical Twilight
Moon
Length of Visible Light
Length of Day
Tomorrow will be .
, % of the Moon is Illuminated

Today's Extremes

State Highs State Lows

Community

WunderPhotos

Upload Photos

1,834,634 photos uploaded!

WunderBlogs® & News

Nearby

Air Quality

  Air Quality AQ Index Pollutant
Not available.

Snow Depth

Station Depth Elevation

Earthquake Activity

City Distance Mag. Time & Date
Minimum magnitude displayed is 2.5.

Coastal Water Temperatures

Place Temperature

Stations

Nearby Weather Stations

Station Location Temp. Windchill Dew Point Humidity Wind Precip. Elev Updated Type